sensor_id;sensor_type;location;lat;lon;timestamp;pressure;altitude;pressure_sealevel;temperature;humidity
50636;BME280;36598;46.054;11.130;2022-11-12T00:01:21;101101.19;;;8.57;78.67
50636;BME280;36598;46.054;11.130;2022-11-12T00:03:46;101097.88;;;8.51;78.34
50636;BME280;36598;46.054;11.130;2022-11-12T00:06:12;101097.16;;;8.54;78.44
50636;BME280;36598;46.054;11.130;2022-11-12T00:08:37;101090.41;;;8.67;77.40
50636;BME280;36598;46.054;11.130;2022-11-12T00:11:02;101098.69;;;8.83;76.71
50636;BME280;36598;46.054;11.130;2022-11-12T00:13:29;101094.59;;;8.61;77.84
50636;BME280;36598;46.054;11.130;2022-11-12T00:15:54;101091.06;;;8.33;79.45
50636;BME280;36598;46.054;11.130;2022-11-12T00:18:19;101092.63;;;8.62;78.36
50636;BME280;36598;46.054;11.130;2022-11-12T00:20:44;101090.31;;;8.48;78.13
50636;BME280;36598;46.054;11.130;2022-11-12T00:23:10;101091.81;;;8.17;79.63
50636;BME280;36598;46.054;11.130;2022-11-12T00:25:35;101077.03;;;7.82;81.67
50636;BME280;36598;46.054;11.130;2022-11-12T00:28:07;101082.16;;;8.23;80.43
50636;BME280;36598;46.054;11.130;2022-11-12T00:30:33;101082.03;;;8.20;80.36
50636;BME280;36598;46.054;11.130;2022-11-12T00:33:01;101086.69;;;8.32;79.58
50636;BME280;36598;46.054;11.130;2022-11-12T00:35:26;101082.75;;;8.17;79.81
50636;BME280;36598;46.054;11.130;2022-11-12T00:37:52;101085.75;;;8.12;79.81
50636;BME280;36598;46.054;11.130;2022-11-12T00:40:18;101086.25;;;8.29;80.00
50636;BME280;36598;46.054;11.130;2022-11-12T00:42:43;101084.34;;;8.18;79.59
50636;BME280;36598;46.054;11.130;2022-11-12T00:45:08;101084.50;;;8.09;80.37
50636;BME280;36598;46.054;11.130;2022-11-12T00:47:33;101087.66;;;7.95;80.71
50636;BME280;36598;46.054;11.130;2022-11-12T00:49:59;101085.44;;;8.29;80.00
50636;BME280;36598;46.054;11.130;2022-11-12T00:52:24;101081.25;;;8.19;79.78
50636;BME280;36598;46.054;11.130;2022-11-12T00:54:49;101077.28;;;8.33;79.23
50636;BME280;36598;46.054;11.130;2022-11-12T00:57:14;101075.28;;;8.45;78.21
50636;BME280;36598;46.054;11.130;2022-11-12T00:59:40;101076.16;;;8.49;78.25
50636;BME280;36598;46.054;11.130;2022-11-12T01:02:05;101075.28;;;8.61;77.67
50636;BME280;36598;46.054;11.130;2022-11-12T01:04:30;101065.84;;;8.62;77.47
50636;BME280;36598;46.054;11.130;2022-11-12T01:06:55;101078.47;;;8.63;77.00
50636;BME280;36598;46.054;11.130;2022-11-12T01:09:21;101072.50;;;8.77;76.20
50636;BME280;36598;46.054;11.130;2022-11-12T01:11:46;101075.63;;;8.60;76.73
50636;BME280;36598;46.054;11.130;2022-11-12T01:14:12;101080.63;;;8.54;77.00
50636;BME280;36598;46.054;11.130;2022-11-12T01:16:38;101082.78;;;8.33;77.42
50636;BME280;36598;46.054;11.130;2022-11-12T01:19:04;101073.47;;;8.37;78.05
50636;BME280;36598;46.054;11.130;2022-11-12T01:21:31;101081.78;;;8.25;78.47
50636;BME280;36598;46.054;11.130;2022-11-12T01:23:57;101079.03;;;8.25;79.05
50636;BME280;36598;46.054;11.130;2022-11-12T01:26:23;101083.22;;;8.35;78.61
50636;BME280;36598;46.054;11.130;2022-11-12T01:28:49;101087.66;;;8.23;78.54
50636;BME280;36598;46.054;11.130;2022-11-12T01:31:21;101079.72;;;8.22;79.20
50636;BME280;36598;46.054;11.130;2022-11-12T01:33:51;101082.00;;;8.32;78.68
50636;BME280;36598;46.054;11.130;2022-11-12T01:36:17;101081.69;;;8.21;79.53
50636;BME280;36598;46.054;11.130;2022-11-12T01:38:43;101068.84;;;8.41;77.81
50636;BME280;36598;46.054;11.130;2022-11-12T01:41:10;101069.97;;;8.24;78.81
50636;BME280;36598;46.054;11.130;2022-11-12T01:43:36;101067.88;;;8.06;79.24
50636;BME280;36598;46.054;11.130;2022-11-12T01:46:02;101076.16;;;8.21;78.79
50636;BME280;36598;46.054;11.130;2022-11-12T01:48:39;101061.88;;;8.32;78.35
50636;BME280;36598;46.054;11.130;2022-11-12T01:51:08;101062.31;;;7.90;79.83
50636;BME280;36598;46.054;11.130;2022-11-12T01:53:35;101064.97;;;7.86;79.76
50636;BME280;36598;46.054;11.130;2022-11-12T01:56:03;101053.44;;;7.96;79.39
50636;BME280;36598;46.054;11.130;2022-11-12T01:58:29;101057.94;;;8.17;79.13
50636;BME280;36598;46.054;11.130;2022-11-12T02:00:56;101052.78;;;8.15;78.53
50636;BME280;36598;46.054;11.130;2022-11-12T02:03:22;101051.41;;;8.37;77.58
50636;BME280;36598;46.054;11.130;2022-11-12T02:05:48;101054.03;;;8.34;77.86
50636;BME280;36598;46.054;11.130;2022-11-12T02:08:15;101054.75;;;8.31;78.26
50636;BME280;36598;46.054;11.130;2022-11-12T02:10:41;101054.78;;;8.02;78.50
50636;BME280;36598;46.054;11.130;2022-11-12T02:13:06;101048.66;;;8.09;78.79
50636;BME280;36598;46.054;11.130;2022-11-12T02:15:50;101042.75;;;8.23;77.47
50636;BME280;36598;46.054;11.130;2022-11-12T02:18:15;101040.16;;;8.14;78.10
50636;BME280;36598;46.054;11.130;2022-11-12T02:20:41;101037.66;;;8.25;77.26
50636;BME280;36598;46.054;11.130;2022-11-12T02:23:06;101036.59;;;8.29;77.19
50636;BME280;36598;46.054;11.130;2022-11-12T02:25:32;101036.44;;;8.22;77.46
50636;BME280;36598;46.054;11.130;2022-11-12T02:27:58;101027.53;;;8.29;77.72
50636;BME280;36598;46.054;11.130;2022-11-12T02:33:09;101025.09;;;8.40;77.31
50636;BME280;36598;46.054;11.130;2022-11-12T02:35:34;101023.78;;;8.21;77.92
50636;BME280;36598;46.054;11.130;2022-11-12T02:37:59;101019.06;;;8.22;77.47
50636;BME280;36598;46.054;11.130;2022-11-12T02:40:25;101018.41;;;7.97;78.98
50636;BME280;36598;46.054;11.130;2022-11-12T02:42:50;101028.38;;;8.01;78.94
50636;BME280;36598;46.054;11.130;2022-11-12T02:45:15;101021.41;;;7.92;79.35
50636;BME280;36598;46.054;11.130;2022-11-12T02:47:41;101030.25;;;7.97;78.90
50636;BME280;36598;46.054;11.130;2022-11-12T02:50:06;101034.97;;;7.97;78.53
50636;BME280;36598;46.054;11.130;2022-11-12T02:52:32;101030.75;;;7.59;80.84
50636;BME280;36598;46.054;11.130;2022-11-12T02:54:58;101029.50;;;7.85;79.21
50636;BME280;36598;46.054;11.130;2022-11-12T02:57:24;101034.91;;;7.41;82.06
50636;BME280;36598;46.054;11.130;2022-11-12T02:59:49;101037.31;;;7.55;81.33
50636;BME280;36598;46.054;11.130;2022-11-12T03:02:14;101028.97;;;7.39;82.17
50636;BME280;36598;46.054;11.130;2022-11-12T03:04:40;101033.16;;;7.61;81.82
50636;BME280;36598;46.054;11.130;2022-11-12T03:07:05;101023.81;;;7.65;81.41
50636;BME280;36598;46.054;11.130;2022-11-12T03:09:30;101029.81;;;7.67;80.27
50636;BME280;36598;46.054;11.130;2022-11-12T03:11:55;101028.44;;;7.89;79.46
50636;BME280;36598;46.054;11.130;2022-11-12T03:14:21;101026.22;;;7.95;78.82
50636;BME280;36598;46.054;11.130;2022-11-12T03:16:46;101031.47;;;8.00;78.67
50636;BME280;36598;46.054;11.130;2022-11-12T03:19:11;101026.13;;;7.91;78.42
50636;BME280;36598;46.054;11.130;2022-11-12T03:21:36;101033.91;;;8.17;77.57
50636;BME280;36598;46.054;11.130;2022-11-12T03:24:02;101033.66;;;8.22;77.11
50636;BME280;36598;46.054;11.130;2022-11-12T03:26:27;101033.00;;;8.13;77.83
50636;BME280;36598;46.054;11.130;2022-11-12T03:28:52;101021.97;;;8.13;77.07
50636;BME280;36598;46.054;11.130;2022-11-12T03:31:18;101021.44;;;8.08;77.08
50636;BME280;36598;46.054;11.130;2022-11-12T03:33:43;101017.28;;;8.14;77.09
50636;BME280;36598;46.054;11.130;2022-11-12T03:36:08;101022.19;;;8.20;77.04
50636;BME280;36598;46.054;11.130;2022-11-12T03:38:34;101018.75;;;7.95;77.40
50636;BME280;36598;46.054;11.130;2022-11-12T03:40:59;101015.75;;;8.00;77.19
50636;BME280;36598;46.054;11.130;2022-11-12T03:43:24;101013.38;;;8.15;76.88
50636;BME280;36598;46.054;11.130;2022-11-12T03:45:49;101017.47;;;8.21;76.85
50636;BME280;36598;46.054;11.130;2022-11-12T03:48:15;101009.03;;;8.29;76.34
50636;BME280;36598;46.054;11.130;2022-11-12T03:50:40;101018.66;;;8.36;76.02
50636;BME280;36598;46.054;11.130;2022-11-12T03:53:05;101014.53;;;8.14;76.55
50636;BME280;36598;46.054;11.130;2022-11-12T03:55:31;101008.19;;;8.13;76.74
50636;BME280;36598;46.054;11.130;2022-11-12T03:57:56;101008.41;;;8.20;76.15
50636;BME280;36598;46.054;11.130;2022-11-12T04:00:23;101005.78;;;7.96;76.55
50636;BME280;36598;46.054;11.130;2022-11-12T04:02:49;101008.91;;;7.66;78.07
50636;BME280;36598;46.054;11.130;2022-11-12T04:05:14;101010.38;;;7.92;77.26
50636;BME280;36598;46.054;11.130;2022-11-12T04:10:42;100998.94;;;7.90;77.53
50636;BME280;36598;46.054;11.130;2022-11-12T04:13:07;101001.16;;;8.00;76.71
50636;BME280;36598;46.054;11.130;2022-11-12T04:15:51;101001.56;;;8.14;76.33
50636;BME280;36598;46.054;11.130;2022-11-12T04:18:35;100999.94;;;8.13;76.21
50636;BME280;36598;46.054;11.130;2022-11-12T04:21:19;100999.94;;;8.13;75.29
50636;BME280;36598;46.054;11.130;2022-11-12T04:24:03;101003.81;;;7.96;76.41
50636;BME280;36598;46.054;11.130;2022-11-12T04:26:28;101007.06;;;8.30;75.22
50636;BME280;36598;46.054;11.130;2022-11-12T04:28:54;101002.72;;;8.29;75.80
50636;BME280;36598;46.054;11.130;2022-11-12T04:31:37;101004.06;;;8.35;75.38
50636;BME280;36598;46.054;11.130;2022-11-12T04:34:02;101005.81;;;8.12;75.73
50636;BME280;36598;46.054;11.130;2022-11-12T04:36:46;100997.16;;;7.97;75.91
50636;BME280;36598;46.054;11.130;2022-11-12T04:39:11;100992.72;;;8.09;76.09
50636;BME280;36598;46.054;11.130;2022-11-12T04:41:37;101007.97;;;8.18;75.55
50636;BME280;36598;46.054;11.130;2022-11-12T04:44:20;100998.50;;;8.03;76.07
50636;BME280;36598;46.054;11.130;2022-11-12T04:47:05;100994.41;;;8.13;75.91
50636;BME280;36598;46.054;11.130;2022-11-12T04:49:30;100998.53;;;8.19;75.36
50636;BME280;36598;46.054;11.130;2022-11-12T04:51:55;100991.69;;;8.29;75.91
50636;BME280;36598;46.054;11.130;2022-11-12T04:54:30;100988.38;;;8.23;75.94
50636;BME280;36598;46.054;11.130;2022-11-12T04:56:55;100994.34;;;8.10;77.01
50636;BME280;36598;46.054;11.130;2022-11-12T04:59:20;100984.63;;;8.00;77.44
50636;BME280;36598;46.054;11.130;2022-11-12T05:01:45;100980.44;;;7.90;77.64
50636;BME280;36598;46.054;11.130;2022-11-12T05:04:11;100984.75;;;8.19;76.40
50636;BME280;36598;46.054;11.130;2022-11-12T05:06:36;100981.91;;;8.32;76.06
50636;BME280;36598;46.054;11.130;2022-11-12T05:09:17;100976.16;;;8.37;75.84
50636;BME280;36598;46.054;11.130;2022-11-12T05:11:42;100973.00;;;8.22;75.85
50636;BME280;36598;46.054;11.130;2022-11-12T05:14:07;100982.50;;;8.25;75.80
50636;BME280;36598;46.054;11.130;2022-11-12T05:16:33;100976.97;;;8.09;76.06
50636;BME280;36598;46.054;11.130;2022-11-12T05:18:58;100974.31;;;8.13;75.39
50636;BME280;36598;46.054;11.130;2022-11-12T05:21:23;100972.13;;;8.18;75.57
50636;BME280;36598;46.054;11.130;2022-11-12T05:24:07;100974.75;;;8.31;74.87
50636;BME280;36598;46.054;11.130;2022-11-12T05:26:33;100971.31;;;8.34;74.23
50636;BME280;36598;46.054;11.130;2022-11-12T05:28:58;100977.28;;;8.36;74.60
50636;BME280;36598;46.054;11.130;2022-11-12T05:31:23;100973.53;;;8.12;74.85
50636;BME280;36598;46.054;11.130;2022-11-12T05:33:48;100974.88;;;8.18;74.40
50636;BME280;36598;46.054;11.130;2022-11-12T05:36:14;100965.94;;;8.09;75.26
50636;BME280;36598;46.054;11.130;2022-11-12T05:38:39;100963.13;;;8.06;75.44
50636;BME280;36598;46.054;11.130;2022-11-12T05:41:04;100970.59;;;8.05;75.08
50636;BME280;36598;46.054;11.130;2022-11-12T05:43:29;100972.25;;;7.94;75.80
50636;BME280;36598;46.054;11.130;2022-11-12T05:45:55;100969.53;;;8.10;75.27
50636;BME280;36598;46.054;11.130;2022-11-12T05:48:20;100967.00;;;7.89;76.05
50636;BME280;36598;46.054;11.130;2022-11-12T05:50:49;100965.13;;;7.77;76.73
50636;BME280;36598;46.054;11.130;2022-11-12T05:53:14;100956.81;;;8.05;75.96
50636;BME280;36598;46.054;11.130;2022-11-12T05:55:40;100959.63;;;8.09;75.83
50636;BME280;36598;46.054;11.130;2022-11-12T05:58:05;100960.34;;;8.21;75.31
50636;BME280;36598;46.054;11.130;2022-11-12T06:00:31;100959.03;;;8.15;74.93
50636;BME280;36598;46.054;11.130;2022-11-12T06:02:56;100958.59;;;8.29;74.83
50636;BME280;36598;46.054;11.130;2022-11-12T06:05:22;100966.16;;;8.32;74.75
50636;BME280;36598;46.054;11.130;2022-11-12T06:07:47;100958.69;;;8.33;74.49
50636;BME280;36598;46.054;11.130;2022-11-12T06:10:13;100951.66;;;8.35;74.14
50636;BME280;36598;46.054;11.130;2022-11-12T06:12:38;100957.78;;;8.28;74.41
50636;BME280;36598;46.054;11.130;2022-11-12T06:15:03;100953.69;;;8.22;74.18
50636;BME280;36598;46.054;11.130;2022-11-12T06:17:29;100966.00;;;8.41;73.63
50636;BME280;36598;46.054;11.130;2022-11-12T06:19:54;100961.28;;;8.41;73.64
50636;BME280;36598;46.054;11.130;2022-11-12T06:22:19;100970.13;;;8.35;73.33
50636;BME280;36598;46.054;11.130;2022-11-12T06:24:44;100959.94;;;8.51;72.99
50636;BME280;36598;46.054;11.130;2022-11-12T06:27:10;100960.72;;;8.36;73.05
50636;BME280;36598;46.054;11.130;2022-11-12T06:29:35;100954.06;;;8.37;73.05
50636;BME280;36598;46.054;11.130;2022-11-12T06:32:00;100957.03;;;8.44;72.53
50636;BME280;36598;46.054;11.130;2022-11-12T06:34:25;100958.63;;;8.45;72.75
50636;BME280;36598;46.054;11.130;2022-11-12T06:36:51;100941.78;;;8.50;72.37
50636;BME280;36598;46.054;11.130;2022-11-12T06:39:16;100945.97;;;8.44;72.10
50636;BME280;36598;46.054;11.130;2022-11-12T06:41:41;100951.47;;;8.28;73.42
50636;BME280;36598;46.054;11.130;2022-11-12T06:44:06;100945.16;;;8.27;73.55
50636;BME280;36598;46.054;11.130;2022-11-12T06:46:32;100934.78;;;8.37;73.14
50636;BME280;36598;46.054;11.130;2022-11-12T06:48:57;100943.19;;;8.28;73.46
50636;BME280;36598;46.054;11.130;2022-11-12T06:51:22;100938.56;;;8.32;73.59
50636;BME280;36598;46.054;11.130;2022-11-12T06:53:48;100944.97;;;8.36;72.69
50636;BME280;36598;46.054;11.130;2022-11-12T06:56:13;100940.91;;;8.46;72.60
50636;BME280;36598;46.054;11.130;2022-11-12T06:58:39;100927.63;;;8.51;72.01
50636;BME280;36598;46.054;11.130;2022-11-12T07:01:11;100927.56;;;8.48;72.00
50636;BME280;36598;46.054;11.130;2022-11-12T07:03:37;100939.63;;;8.59;71.73
50636;BME280;36598;46.054;11.130;2022-11-12T07:06:06;100932.84;;;8.72;71.12
50636;BME280;36598;46.054;11.130;2022-11-12T07:08:32;100939.22;;;8.76;71.90
50636;BME280;36598;46.054;11.130;2022-11-12T07:10:57;100934.69;;;8.84;71.35
50636;BME280;36598;46.054;11.130;2022-11-12T07:13:22;100932.09;;;8.91;71.36
50636;BME280;36598;46.054;11.130;2022-11-12T07:15:48;100934.78;;;9.07;71.43
50636;BME280;36598;46.054;11.130;2022-11-12T07:18:13;100937.22;;;8.93;71.25
50636;BME280;36598;46.054;11.130;2022-11-12T07:20:38;100932.59;;;9.16;70.65
50636;BME280;36598;46.054;11.130;2022-11-12T07:23:03;100930.00;;;9.04;71.77
50636;BME280;36598;46.054;11.130;2022-11-12T07:25:29;100928.88;;;8.89;72.63
50636;BME280;36598;46.054;11.130;2022-11-12T07:27:54;100932.91;;;8.76;71.82
50636;BME280;36598;46.054;11.130;2022-11-12T07:30:19;100927.22;;;9.04;71.77
50636;BME280;36598;46.054;11.130;2022-11-12T07:32:44;100918.44;;;9.18;71.27
50636;BME280;36598;46.054;11.130;2022-11-12T07:35:10;100907.88;;;9.23;70.24
50636;BME280;36598;46.054;11.130;2022-11-12T07:37:35;100919.59;;;9.56;70.40
50636;BME280;36598;46.054;11.130;2022-11-12T07:40:02;100912.31;;;9.90;69.10
50636;BME280;36598;46.054;11.130;2022-11-12T07:42:28;100917.16;;;9.96;68.39
50636;BME280;36598;46.054;11.130;2022-11-12T07:44:53;100909.69;;;10.23;65.66
50636;BME280;36598;46.054;11.130;2022-11-12T07:47:18;100914.78;;;10.44;65.44
50636;BME280;36598;46.054;11.130;2022-11-12T07:49:43;100912.63;;;10.57;64.41
50636;BME280;36598;46.054;11.130;2022-11-12T07:52:09;100915.81;;;10.33;64.63
50636;BME280;36598;46.054;11.130;2022-11-12T07:54:34;100917.59;;;10.71;63.86
50636;BME280;36598;46.054;11.130;2022-11-12T07:56:59;100907.94;;;11.21;62.18
50636;BME280;36598;46.054;11.130;2022-11-12T07:59:24;100916.25;;;11.55;60.45
50636;BME280;36598;46.054;11.130;2022-11-12T08:01:50;100905.88;;;11.86;59.99
50636;BME280;36598;46.054;11.130;2022-11-12T08:04:15;100906.38;;;11.58;59.44
50636;BME280;36598;46.054;11.130;2022-11-12T08:06:41;100907.09;;;11.51;60.33
50636;BME280;36598;46.054;11.130;2022-11-12T08:09:06;100907.56;;;11.94;59.13
50636;BME280;36598;46.054;11.130;2022-11-12T08:11:32;100911.50;;;12.41;57.57
50636;BME280;36598;46.054;11.130;2022-11-12T08:13:58;100903.28;;;13.28;55.45
50636;BME280;36598;46.054;11.130;2022-11-12T08:16:23;100907.31;;;13.52;54.27
50636;BME280;36598;46.054;11.130;2022-11-12T08:18:49;100899.06;;;13.84;52.86
50636;BME280;36598;46.054;11.130;2022-11-12T08:21:15;100900.66;;;14.53;51.18
50636;BME280;36598;46.054;11.130;2022-11-12T08:23:40;100895.28;;;15.19;49.25
50636;BME280;36598;46.054;11.130;2022-11-12T08:26:07;100886.31;;;15.67;47.85
50636;BME280;36598;46.054;11.130;2022-11-12T08:28:33;100891.59;;;15.40;48.88
50636;BME280;36598;46.054;11.130;2022-11-12T08:31:11;100892.41;;;16.90;45.39
50636;BME280;36598;46.054;11.130;2022-11-12T08:33:37;100889.06;;;16.64;45.76
50636;BME280;36598;46.054;11.130;2022-11-12T08:36:06;100884.38;;;16.09;47.16
50636;BME280;36598;46.054;11.130;2022-11-12T08:38:32;100879.81;;;15.85;47.03
50636;BME280;36598;46.054;11.130;2022-11-12T08:41:04;100881.94;;;16.56;45.61
50636;BME280;36598;46.054;11.130;2022-11-12T08:43:30;100864.88;;;17.49;43.48
50636;BME280;36598;46.054;11.130;2022-11-12T08:45:59;100862.13;;;18.00;41.34
50636;BME280;36598;46.054;11.130;2022-11-12T08:48:25;100857.78;;;18.19;41.19
50636;BME280;36598;46.054;11.130;2022-11-12T08:50:51;100860.25;;;18.60;40.57
50636;BME280;36598;46.054;11.130;2022-11-12T08:53:16;100854.72;;;17.32;42.88
50636;BME280;36598;46.054;11.130;2022-11-12T08:55:41;100861.13;;;18.10;41.17
50636;BME280;36598;46.054;11.130;2022-11-12T08:58:07;100860.06;;;18.91;39.89
50636;BME280;36598;46.054;11.130;2022-11-12T09:00:33;100867.13;;;19.19;39.11
50636;BME280;36598;46.054;11.130;2022-11-12T09:03:02;100858.31;;;20.22;37.09
50636;BME280;36598;46.054;11.130;2022-11-12T09:05:28;100859.69;;;19.29;38.84
50636;BME280;36598;46.054;11.130;2022-11-12T09:07:57;100862.06;;;20.15;37.65
50636;BME280;36598;46.054;11.130;2022-11-12T09:10:23;100860.41;;;20.18;37.96
50636;BME280;36598;46.054;11.130;2022-11-12T09:12:51;100852.34;;;20.94;35.77
50636;BME280;36598;46.054;11.130;2022-11-12T09:15:17;100849.00;;;19.92;36.86
50636;BME280;36598;46.054;11.130;2022-11-12T09:17:42;100848.22;;;21.24;35.02
50636;BME280;36598;46.054;11.130;2022-11-12T09:20:08;100849.88;;;20.67;35.26
50636;BME280;36598;46.054;11.130;2022-11-12T09:22:33;100846.34;;;20.92;35.37
50636;BME280;36598;46.054;11.130;2022-11-12T09:24:59;100842.25;;;20.81;35.60
50636;BME280;36598;46.054;11.130;2022-11-12T09:27:27;100838.06;;;22.04;32.81
50636;BME280;36598;46.054;11.130;2022-11-12T09:29:52;100836.69;;;23.53;31.29
50636;BME280;36598;46.054;11.130;2022-11-12T09:32:18;100835.53;;;23.41;30.92
50636;BME280;36598;46.054;11.130;2022-11-12T09:34:43;100829.81;;;23.22;31.52
50636;BME280;36598;46.054;11.130;2022-11-12T09:37:09;100826.88;;;19.94;36.28
50636;BME280;36598;46.054;11.130;2022-11-12T09:39:34;100827.13;;;17.61;40.62
50636;BME280;36598;46.054;11.130;2022-11-12T09:41:59;100832.31;;;15.88;44.01
50636;BME280;36598;46.054;11.130;2022-11-12T09:44:30;100829.19;;;15.16;46.16
50636;BME280;36598;46.054;11.130;2022-11-12T09:47:04;100834.22;;;16.40;44.29
50636;BME280;36598;46.054;11.130;2022-11-12T09:49:39;100833.13;;;16.30;45.27
50636;BME280;36598;46.054;11.130;2022-11-12T09:54:35;100827.81;;;20.20;37.30
50636;BME280;36598;46.054;11.130;2022-11-12T09:57:01;100819.16;;;21.27;35.25
50636;BME280;36598;46.054;11.130;2022-11-12T09:59:30;100806.19;;;23.38;31.93
50636;BME280;36598;46.054;11.130;2022-11-12T10:02:01;100805.25;;;23.10;31.98
50636;BME280;36598;46.054;11.130;2022-11-12T10:07:12;100786.78;;;24.63;28.99
50636;BME280;36598;46.054;11.130;2022-11-12T10:09:46;100784.84;;;24.79;28.53
50636;BME280;36598;46.054;11.130;2022-11-12T10:17:34;100771.63;;;20.91;33.65
50636;BME280;36598;46.054;11.130;2022-11-12T10:20:19;100765.69;;;20.31;35.24
50636;BME280;36598;46.054;11.130;2022-11-12T10:22:55;100766.59;;;20.57;35.61
50636;BME280;36598;46.054;11.130;2022-11-12T10:25:23;100741.44;;;21.68;33.54
50636;BME280;36598;46.054;11.130;2022-11-12T10:27:48;100744.56;;;22.18;33.42
50636;BME280;36598;46.054;11.130;2022-11-12T10:30:15;100742.59;;;23.92;31.34
50636;BME280;36598;46.054;11.130;2022-11-12T10:32:42;100735.75;;;22.50;32.66
50636;BME280;36598;46.054;11.130;2022-11-12T10:35:09;100743.38;;;23.74;30.46
50636;BME280;36598;46.054;11.130;2022-11-12T10:37:44;100739.38;;;21.82;33.24
50636;BME280;36598;46.054;11.130;2022-11-12T10:42:57;100731.88;;;18.32;39.28
50636;BME280;36598;46.054;11.130;2022-11-12T10:45:23;100731.72;;;17.99;39.56
50636;BME280;36598;46.054;11.130;2022-11-12T10:47:48;100725.09;;;17.15;41.97
50636;BME280;36598;46.054;11.130;2022-11-12T10:50:21;100723.50;;;17.14;42.06
50636;BME280;36598;46.054;11.130;2022-11-12T10:52:56;100716.13;;;18.77;38.61
50636;BME280;36598;46.054;11.130;2022-11-12T10:55:23;100712.56;;;18.37;39.58
50636;BME280;36598;46.054;11.130;2022-11-12T11:00:32;100706.56;;;22.22;32.87
50636;BME280;36598;46.054;11.130;2022-11-12T11:02:59;100707.56;;;23.71;30.92
50636;BME280;36598;46.054;11.130;2022-11-12T11:05:33;100703.19;;;23.80;30.53
50636;BME280;36598;46.054;11.130;2022-11-12T11:07:59;100700.16;;;23.56;30.17
50636;BME280;36598;46.054;11.130;2022-11-12T11:10:27;100696.59;;;24.38;29.22
50636;BME280;36598;46.054;11.130;2022-11-12T11:13:08;100693.31;;;22.54;32.26
50636;BME280;36598;46.054;11.130;2022-11-12T11:15:34;100671.69;;;23.32;30.42
50636;BME280;36598;46.054;11.130;2022-11-12T11:17:59;100662.28;;;23.26;30.83
50636;BME280;36598;46.054;11.130;2022-11-12T11:20:34;100667.50;;;22.96;31.76
50636;BME280;36598;46.054;11.130;2022-11-12T11:23:07;100653.06;;;22.94;31.88
50636;BME280;36598;46.054;11.130;2022-11-12T11:25:37;100657.69;;;22.79;32.11
50636;BME280;36598;46.054;11.130;2022-11-12T11:28:07;100653.50;;;22.30;32.40
50636;BME280;36598;46.054;11.130;2022-11-12T11:30:37;100650.38;;;21.37;33.94
50636;BME280;36598;46.054;11.130;2022-11-12T11:53:41;100608.63;;;17.92;42.35
50636;BME280;36598;46.054;11.130;2022-11-12T11:56:23;100601.28;;;17.98;40.91
50636;BME280;36598;46.054;11.130;2022-11-12T11:58:57;100605.34;;;17.53;41.90
50636;BME280;36598;46.054;11.130;2022-11-12T12:06:58;100587.91;;;16.75;44.84
50636;BME280;36598;46.054;11.130;2022-11-12T12:09:37;100582.50;;;17.12;45.93
50636;BME280;36598;46.054;11.130;2022-11-12T12:12:10;100577.25;;;18.00;41.14
50636;BME280;36598;46.054;11.130;2022-11-12T12:17:30;100574.00;;;18.91;40.26
50636;BME280;36598;46.054;11.130;2022-11-12T12:20:02;100573.44;;;19.29;39.08
50636;BME280;36598;46.054;11.130;2022-11-12T12:25:23;100565.06;;;19.12;39.38
50636;BME280;36598;46.054;11.130;2022-11-12T12:27:50;100562.47;;;18.00;42.27
50636;BME280;36598;46.054;11.130;2022-11-12T12:30:19;100561.53;;;18.59;40.78
50636;BME280;36598;46.054;11.130;2022-11-12T12:43:00;100528.25;;;18.09;41.66
50636;BME280;36598;46.054;11.130;2022-11-12T12:48:00;100522.03;;;18.01;42.35
50636;BME280;36598;46.054;11.130;2022-11-12T12:50:26;100516.97;;;17.76;42.28
50636;BME280;36598;46.054;11.130;2022-11-12T12:53:02;100521.66;;;17.59;43.54
50636;BME280;36598;46.054;11.130;2022-11-12T12:55:36;100508.59;;;17.72;43.05
50636;BME280;36598;46.054;11.130;2022-11-12T12:58:01;100504.16;;;17.55;43.77
50636;BME280;36598;46.054;11.130;2022-11-12T13:02:56;100505.47;;;17.31;43.55
50636;BME280;36598;46.054;11.130;2022-11-12T13:05:22;100511.91;;;17.27;43.39
50636;BME280;36598;46.054;11.130;2022-11-12T13:07:48;100505.44;;;17.11;43.64
50636;BME280;36598;46.054;11.130;2022-11-12T13:15:41;100498.28;;;16.86;45.83
50636;BME280;36598;46.054;11.130;2022-11-12T13:18:07;100498.72;;;16.85;46.05
50636;BME280;36598;46.054;11.130;2022-11-12T13:20:35;100498.94;;;16.70;47.37
50636;BME280;36598;46.054;11.130;2022-11-12T13:23:01;100490.91;;;16.49;47.15
50636;BME280;36598;46.054;11.130;2022-11-12T13:25:27;100485.91;;;16.37;47.47
50636;BME280;36598;46.054;11.130;2022-11-12T13:37:47;100477.75;;;15.61;48.84
50636;BME280;36598;46.054;11.130;2022-11-12T13:40:14;100465.06;;;15.57;48.99
50636;BME280;36598;46.054;11.130;2022-11-12T13:42:40;100467.31;;;15.72;48.79
50636;BME280;36598;46.054;11.130;2022-11-12T13:45:12;100470.84;;;15.76;48.42
50636;BME280;36598;46.054;11.130;2022-11-12T13:47:37;100471.88;;;15.56;48.95
50636;BME280;36598;46.054;11.130;2022-11-12T13:50:05;100464.72;;;15.55;49.35
50636;BME280;36598;46.054;11.130;2022-11-12T13:52:31;100463.91;;;15.54;49.54
50636;BME280;36598;46.054;11.130;2022-11-12T13:55:31;100459.72;;;15.39;50.54
50636;BME280;36598;46.054;11.130;2022-11-12T13:57:53;100455.34;;;15.38;50.47
50636;BME280;36598;46.054;11.130;2022-11-12T14:00:25;100446.78;;;15.21;51.30
50636;BME280;36598;46.054;11.130;2022-11-12T14:02:55;100450.22;;;15.33;50.80
50636;BME280;36598;46.054;11.130;2022-11-12T14:05:23;100452.19;;;14.98;52.35
50636;BME280;36598;46.054;11.130;2022-11-12T14:10:24;100448.44;;;14.77;53.45
50636;BME280;36598;46.054;11.130;2022-11-12T14:18:39;100444.06;;;14.76;53.85